Time;durP1;ratioP1;P1;durP2;ratioP2;P2;SDS_P1;SDS_P2;PMS_P1;PMS_P2;Temp;Humidity;BMP_temperature;BMP_pressure;BME280_temperature;BME280_humidity;BME280_pressure;Samples;Min_cycle;Max_cycle;Signal;HPM_P1;HPM_P2
2023/10/22 00:04:41;;;;;;;10.95;4.63;;;16.80;99.90;;;15.44;100.00;98987.78;10281480;28;96718;-87
2023/10/22 00:09:46;;;;;;;7.45;3.35;;;16.80;99.90;;;15.43;100.00;98988.03;10296810;28;96590;-87
2023/10/22 00:14:50;;;;;;;6.82;3.78;;;16.80;99.90;;;15.40;100.00;98983.94;10294994;28;96684;-87
2023/10/22 00:19:54;;;;;;;14.07;3.90;;;16.70;99.90;;;15.35;100.00;98969.59;10317136;28;96695;-87
2023/10/22 00:24:57;;;;;;;10.40;4.15;;;16.60;99.90;;;15.30;100.00;98943.56;10319738;28;97782;-87
2023/10/22 00:30:01;;;;;;;7.65;3.65;;;16.60;99.90;;;15.23;100.00;98949.00;10285663;28;96713;-87
2023/10/22 00:35:05;;;;;;;8.77;4.53;;;16.50;99.90;;;15.17;100.00;98959.78;10322937;28;96523;-87
2023/10/22 00:40:09;;;;;;;12.50;4.50;;;16.40;99.90;;;15.14;100.00;98968.28;10333675;28;97430;-87
2023/10/22 00:45:13;;;;;;;7.50;3.35;;;16.40;99.90;;;15.11;100.00;98972.19;10301779;28;97463;-87
2023/10/22 00:50:16;;;;;;;7.20;3.30;;;16.40;99.90;;;15.12;100.00;98965.03;10340788;28;99510;-87
2023/10/22 00:55:21;;;;;;;8.40;3.67;;;16.40;99.90;;;15.08;100.00;98959.28;10304902;28;96461;-87
2023/10/22 01:00:26;;;;;;;13.13;4.75;;;16.40;99.90;;;15.08;100.00;98964.66;10305403;28;97954;-87
2023/10/22 01:05:31;;;;;;;6.38;3.22;;;16.40;99.90;;;15.06;100.00;98958.72;10337240;28;96635;-87
2023/10/22 01:10:35;;;;;;;7.93;4.07;;;16.30;99.90;;;15.03;100.00;98951.13;10352448;28;97657;-86
2023/10/22 01:15:39;;;;;;;7.68;3.55;;;16.30;99.90;;;15.01;100.00;98947.88;10319707;28;96726;-86
2023/10/22 01:20:43;;;;;;;10.15;3.70;;;16.30;99.90;;;15.02;100.00;98954.03;10316291;28;97220;-86
2023/10/22 01:25:47;;;;;;;7.85;3.38;;;16.30;99.90;;;14.99;100.00;98966.84;10308427;28;97826;-87
2023/10/22 01:30:51;;;;;;;8.23;3.60;;;16.30;99.90;;;15.02;100.00;98968.22;10302851;28;96604;-87
2023/10/22 01:35:54;;;;;;;7.35;3.03;;;16.30;99.90;;;15.05;100.00;98958.91;10326275;28;97408;-87
2023/10/22 01:40:58;;;;;;;6.95;3.15;;;16.40;99.90;;;15.08;100.00;98942.44;10317322;28;98342;-87
2023/10/22 01:46:02;;;;;;;11.88;3.58;;;16.40;99.90;;;15.11;100.00;98945.44;10333323;28;96958;-87
2023/10/22 01:51:05;;;;;;;10.57;2.90;;;16.40;99.90;;;15.12;100.00;98943.59;10309284;28;96611;-87
2023/10/22 01:56:09;;;;;;;8.70;3.80;;;16.40;99.90;;;15.12;100.00;98944.44;10326392;28;99716;-87
2023/10/22 02:01:13;;;;;;;7.47;2.90;;;16.50;99.90;;;15.14;100.00;98953.03;10337016;28;98616;-87
2023/10/22 02:06:17;;;;;;;11.38;3.83;;;16.50;99.90;;;15.14;100.00;98950.34;10324694;28;96539;-87
2023/10/22 02:11:21;;;;;;;7.80;3.30;;;16.50;99.90;;;15.14;100.00;98947.69;10331122;28;96759;-87
2023/10/22 02:16:25;;;;;;;9.95;3.15;;;16.50;99.90;;;15.17;100.00;98946.41;10296737;28;96751;-87
2023/10/22 02:21:29;;;;;;;8.02;3.97;;;16.50;99.90;;;15.20;100.00;98962.00;10331269;28;96598;-88
2023/10/22 02:26:32;;;;;;;7.97;4.05;;;16.50;99.90;;;15.23;100.00;98949.00;10315539;28;98230;-87
2023/10/22 02:31:36;;;;;;;6.47;3.38;;;16.60;99.90;;;15.25;100.00;98957.59;10305480;28;98102;-87
2023/10/22 02:36:40;;;;;;;8.48;3.83;;;16.60;99.90;;;15.25;100.00;98956.78;10295830;28;96562;-87
2023/10/22 02:41:47;;;;;;;5.20;2.95;;;16.60;99.90;;;15.26;100.00;98945.03;10309013;28;96577;-87
2023/10/22 02:46:51;;;;;;;7.93;2.95;;;16.60;99.90;;;15.29;100.00;98949.91;10306100;28;96652;-87
2023/10/22 02:51:55;;;;;;;7.70;3.45;;;16.60;99.90;;;15.30;100.00;98937.38;10349703;28;96777;-87
2023/10/22 02:56:59;;;;;;;6.03;3.08;;;16.60;99.90;;;15.30;100.00;98934.72;10317994;28;97342;-87
2023/10/22 03:02:03;;;;;;;7.50;3.80;;;16.60;99.90;;;15.31;100.00;98936.34;10301805;28;96560;-87
2023/10/22 03:07:07;;;;;;;7.40;3.40;;;16.70;99.90;;;15.30;100.00;98934.72;10337424;28;96690;-87
2023/10/22 03:12:11;;;;;;;8.90;3.70;;;16.70;99.90;;;15.30;100.00;98932.03;10337228;28;96565;-86
2023/10/22 03:17:17;;;;;;;7.97;3.80;;;16.70;99.90;;;15.30;100.00;98929.34;10334958;28;96721;-87
2023/10/22 03:22:21;;;;;;;5.50;3.10;;;16.60;99.90;;;15.29;100.00;98933.03;10329296;28;98221;-88
2023/10/22 03:27:25;;;;;;;7.65;3.80;;;16.60;99.90;;;15.24;100.00;98929.22;10329378;28;96515;-89
2023/10/22 03:32:28;;;;;;;8.27;4.03;;;16.60;99.90;;;15.20;100.00;98938.75;10327970;28;96858;-89
2023/10/22 03:37:32;;;;;;;8.40;5.15;;;16.50;99.90;;;15.17;100.00;98952.59;10367460;28;96671;-89
2023/10/22 03:42:36;;;;;;;7.18;3.58;;;16.50;99.90;;;15.14;100.00;98954.88;10368343;28;96399;-89
2023/10/22 03:47:40;;;;;;;10.65;3.72;;;16.50;99.90;;;15.13;100.00;98951.41;10333261;28;98810;-90
2023/10/22 03:52:43;;;;;;;8.10;3.83;;;16.50;99.90;;;15.11;100.00;98958.00;10319506;28;96732;-89
2023/10/22 03:57:47;;;;;;;8.40;4.18;;;16.40;99.90;;;15.10;100.00;98957.19;10366851;28;96535;-89
2023/10/22 04:02:50;;;;;;;9.95;3.83;;;16.40;99.90;;;15.06;100.00;98977.44;10347832;28;97214;-89
2023/10/22 04:07:54;;;;;;;9.68;3.45;;;16.40;99.90;;;15.03;100.00;98967.19;10343029;28;96698;-89
2023/10/22 04:12:58;;;;;;;12.50;5.68;;;16.40;99.90;;;15.02;100.00;98972.75;10333843;28;96745;-90
2023/10/22 04:18:01;;;;;;;11.55;5.35;;;16.30;99.90;;;15.01;100.00;98977.31;10321012;28;98828;-89
2023/10/22 04:23:05;;;;;;;10.10;4.47;;;16.30;99.90;;;14.98;100.00;98977.72;10321331;28;96763;-89
2023/10/22 04:28:14;;;;;;;9.20;4.57;;;16.30;99.90;;;14.97;100.00;98984.94;10327901;28;96610;-90
2023/10/22 04:33:18;;;;;;;8.05;3.58;;;16.30;99.90;;;14.94;100.00;98979.25;10316158;28;96800;-90
2023/10/22 04:38:22;;;;;;;7.43;3.50;;;16.30;99.90;;;14.93;100.00;98999.00;10300839;28;96655;-90
2023/10/22 04:43:26;;;;;;;9.52;3.10;;;16.20;99.90;;;14.88;100.00;99002.38;10339208;28;96684;-91
2023/10/22 04:48:33;;;;;;;6.10;2.45;;;16.10;99.90;;;14.87;100.00;99006.09;10323689;28;98505;-90
2023/10/22 04:53:36;;;;;;;5.85;2.25;;;16.10;99.90;;;14.81;100.00;99016.84;10298772;28;96629;-89
2023/10/22 04:58:40;;;;;;;5.15;2.33;;;16.10;99.90;;;14.80;100.00;99036.59;10300962;28;96699;-89
2023/10/22 05:03:44;;;;;;;4.63;2.08;;;16.10;99.90;;;14.78;100.00;99034.16;10325370;28;96849;-90
2023/10/22 05:08:48;;;;;;;3.85;2.03;;;16.00;99.90;;;14.73;100.00;99044.69;10298007;28;99223;-89
2023/10/22 05:13:52;;;;;;;4.72;2.00;;;16.00;99.90;;;14.69;100.00;99052.38;10325380;28;98566;-89
2023/10/22 05:18:56;;;;;;;4.22;1.58;;;16.00;99.90;;;14.64;100.00;99062.09;10316577;28;96923;-90
2023/10/22 05:24:01;;;;;;;4.47;1.70;;;15.90;99.90;;;14.59;100.00;99072.63;10325806;28;98786;-89
2023/10/22 05:29:06;;;;;;;4.95;1.73;;;15.90;99.90;;;14.53;100.00;99090.38;10318694;28;97491;-90
2023/10/22 05:34:10;;;;;;;5.55;1.80;;;15.80;99.90;;;14.49;100.00;99102.53;10309338;28;98107;-90
2023/10/22 05:39:13;;;;;;;3.25;1.90;;;15.80;99.90;;;14.49;100.00;99110.53;10322835;28;96609;-91
2023/10/22 05:44:19;;;;;;;5.60;2.08;;;15.80;99.90;;;14.50;100.00;99117.53;10349977;28;98971;-90
2023/10/22 05:49:22;;;;;;;3.85;2.17;;;15.80;99.90;;;14.54;100.00;99140.13;10313128;28;96676;-90
2023/10/22 05:54:26;;;;;;;2.65;1.75;;;15.90;99.90;;;14.54;100.00;99145.47;10344333;28;96634;-90
2023/10/22 05:59:29;;;;;;;2.85;1.45;;;15.90;99.90;;;14.63;100.00;99160.19;10309238;28;96660;-90
2023/10/22 06:04:35;;;;;;;3.55;1.10;;;15.90;99.90;;;14.73;100.00;99165.84;10332529;28;96677;-88
2023/10/22 06:09:40;;;;;;;1.70;1.02;;;16.00;99.90;;;14.84;100.00;99174.19;10350427;28;98775;-89
2023/10/22 06:14:44;;;;;;;2.05;1.00;;;16.10;99.90;;;14.89;100.00;99177.84;10293561;28;98090;-88
2023/10/22 06:19:47;;;;;;;2.53;1.10;;;16.10;99.90;;;14.89;100.00;99185.06;10324843;28;97421;-91
2023/10/22 06:24:51;;;;;;;2.33;1.15;;;16.10;99.90;;;14.89;100.00;99203.78;10321263;28;96563;-90
2023/10/22 06:29:55;;;;;;;1.42;0.90;;;16.10;99.90;;;14.83;100.00;99213.50;10354159;28;96552;-89
2023/10/22 06:34:58;;;;;;;2.72;0.80;;;16.10;99.90;;;14.76;100.00;99222.63;10307847;28;98130;-90
2023/10/22 06:40:02;;;;;;;1.55;0.70;;;16.00;99.90;;;14.70;100.00;99251.88;10332484;28;98157;-89
2023/10/22 06:45:07;;;;;;;2.75;1.75;;;16.00;99.90;;;14.62;100.00;99246.78;10326225;28;96608;-89
2023/10/22 06:50:12;;;;;;;6.60;2.25;;;15.90;99.90;;;14.49;100.00;99246.06;10318436;28;96907;-88
2023/10/22 06:55:16;;;;;;;5.35;2.60;;;15.80;99.90;;;14.39;100.00;99259.84;10343388;28;97292;-87
2023/10/22 07:00:20;;;;;;;5.32;2.92;;;15.70;99.90;;;14.27;100.00;99266.91;10318503;28;97493;-87
2023/10/22 07:05:24;;;;;;;4.75;2.63;;;15.60;99.90;;;14.25;100.00;99282.34;10330321;28;97419;-89
2023/10/22 07:10:28;;;;;;;4.80;2.45;;;15.50;99.90;;;14.23;100.00;99273.75;10335132;28;96566;-88
2023/10/22 07:15:31;;;;;;;5.20;2.58;;;15.50;99.90;;;14.22;100.00;99280.13;10316743;28;96898;-88
2023/10/22 07:20:35;;;;;;;5.75;2.83;;;15.50;99.90;;;14.18;100.00;99287.75;10308256;28;96675;-88
2023/10/22 07:25:39;;;;;;;3.88;2.47;;;15.50;99.90;;;14.16;100.00;99304.00;10341205;28;97455;-87
2023/10/22 07:30:48;;;;;;;4.03;2.50;;;15.40;99.90;;;14.12;100.00;99301.94;10353327;28;98643;-87
2023/10/22 07:35:58;;;;;;;3.85;2.80;;;15.40;99.90;;;14.23;100.00;99292.44;10343669;28;97885;-87
2023/10/22 07:41:01;;;;;;;2.90;1.90;;;15.40;99.90;;;14.53;100.00;99319.44;10337997;28;97294;-87
2023/10/22 07:46:05;;;;;;;3.20;1.55;;;15.60;99.90;;;14.82;100.00;99339.44;10322019;28;98061;-87
2023/10/22 07:51:10;;;;;;;2.60;1.45;;;15.90;99.90;;;14.94;100.00;99340.38;10321837;28;98985;-87
2023/10/22 07:56:18;;;;;;;2.40;1.38;;;16.10;99.90;;;15.12;100.00;99351.16;10319604;28;98546;-85
2023/10/22 08:01:23;;;;;;;1.83;1.10;;;16.20;99.90;;;15.14;100.00;99365.13;10339685;28;96778;-87
2023/10/22 08:06:27;;;;;;;2.20;1.00;;;16.30;99.90;;;15.05;100.00;99376.28;10310302;28;97507;-88
2023/10/22 08:11:31;;;;;;;1.90;1.00;;;16.30;99.90;;;14.93;100.00;99384.19;10294229;28;96823;-87
2023/10/22 08:16:35;;;;;;;2.15;1.08;;;16.20;99.90;;;14.91;100.00;99391.63;10334885;28;97448;-88
2023/10/22 08:21:39;;;;;;;1.60;0.98;;;16.20;99.90;;;14.95;100.00;99400.84;10335459;28;96750;-86
2023/10/22 08:26:42;;;;;;;1.27;0.85;;;16.20;99.90;;;15.03;100.00;99405.94;10303013;28;98573;-86
2023/10/22 08:31:46;;;;;;;1.83;0.75;;;16.30;99.90;;;14.98;100.00;99419.97;10315960;28;97383;-86
2023/10/22 08:36:50;;;;;;;1.20;0.70;;;16.20;99.90;;;14.95;100.00;99431.09;10302337;28;98243;-87
2023/10/22 08:42:02;;;;;;;1.13;0.63;;;16.20;99.90;;;14.94;100.00;99436.69;10342127;28;96705;-87
2023/10/22 08:47:08;;;;;;;0.88;0.60;;;16.20;99.90;;;14.90;100.00;99430.94;10319793;28;97487;-87
2023/10/22 08:52:11;;;;;;;1.05;0.63;;;16.10;99.90;;;14.90;100.00;99443.47;10308461;28;96833;-86
2023/10/22 08:57:16;;;;;;;1.45;0.55;;;16.20;99.90;;;14.99;100.00;99445.69;10324838;28;96775;-85
2023/10/22 09:02:26;;;;;;;0.88;0.50;;;16.20;99.90;;;15.08;96.10;99466.84;10366459;28;96769;-86
2023/10/22 09:07:54;;;;;;;2.75;0.50;;;16.30;99.90;;;15.03;95.59;99464.00;10322699;28;99076;-86
2023/10/22 09:13:20;;;;;;;0.57;0.43;;;16.30;99.90;;;15.05;96.49;99481.47;10314227;28;97148;-85
2023/10/22 09:18:23;;;;;;;0.82;0.47;;;16.30;99.90;;;15.08;93.50;99486.41;10334252;28;96692;-85
2023/10/22 09:23:27;;;;;;;1.23;0.40;;;16.30;99.90;;;15.08;92.72;99490.94;10351071;28;98467;-84
2023/10/22 09:28:31;;;;;;;0.85;0.35;;;16.40;99.90;;;15.12;93.12;99484.94;10324761;28;97454;-85
2023/10/22 09:33:41;;;;;;;0.80;0.40;;;16.40;99.90;;;15.17;92.21;99501.19;10312638;28;96622;-85
2023/10/22 09:38:53;;;;;;;0.75;0.50;;;16.40;99.90;;;15.20;92.20;99506.09;10322469;28;96665;-84
2023/10/22 09:43:59;;;;;;;1.33;0.45;;;16.50;99.90;;;15.25;92.06;99508.94;10354910;28;96500;-86
2023/10/22 09:49:04;;;;;;;0.70;0.40;;;16.50;99.90;;;15.22;91.75;99511.22;10308876;28;97461;-84
2023/10/22 09:54:11;;;;;;;0.75;0.52;;;16.50;99.90;;;15.15;91.41;99516.59;10323179;28;98481;-85
2023/10/22 09:59:17;;;;;;;1.00;0.40;;;16.50;99.90;;;15.02;91.18;99532.72;10316877;28;96698;-85
2023/10/22 10:04:23;;;;;;;1.88;0.50;;;16.30;99.90;;;14.87;92.26;99545.53;10316908;28;96527;-84
2023/10/22 10:09:28;;;;;;;1.08;0.50;;;16.20;99.90;;;14.76;94.66;99549.72;10297622;28;96618;-84
2023/10/22 10:14:38;;;;;;;1.08;0.50;;;16.10;99.90;;;14.64;94.31;99557.56;10332521;28;96670;-84
2023/10/22 10:19:43;;;;;;;0.43;0.30;;;16.00;99.90;;;14.54;96.16;99565.19;10332563;28;96873;-85
2023/10/22 10:24:47;;;;;;;0.55;0.50;;;15.80;99.90;;;14.39;95.78;99564.56;10321960;28;98737;-85
2023/10/22 10:30:15;;;;;;;0.98;0.55;;;15.70;99.90;;;14.33;98.65;99558.19;10322652;28;97385;-85
2023/10/22 10:35:20;;;;;;;0.75;0.32;;;15.60;99.90;;;14.34;100.00;99559.03;10345121;28;96753;-84
2023/10/22 10:40:50;;;;;;;0.65;0.40;;;15.60;99.90;;;14.33;100.00;99566.22;10353398;28;96625;-85
2023/10/22 10:46:24;;;;;;;0.50;0.30;;;15.70;99.90;;;14.32;100.00;99569.09;10326755;28;96731;-85
2023/10/22 10:51:28;;;;;;;0.32;0.20;;;15.60;99.90;;;14.31;100.00;99578.16;10334472;28;97625;-85
2023/10/22 10:56:49;;;;;;;0.30;0.20;;;15.60;99.90;;;14.29;100.00;99582.88;10328122;28;96778;-85
2023/10/22 11:02:00;;;;;;;;;;;15.60;99.90;;;14.23;100.00;99592.56;10319277;28;97394;-86
2023/10/22 11:07:06;;;;;;;1.10;0.40;;;15.50;99.90;;;14.16;100.00;99589.88;10314583;28;96714;-85
2023/10/22 11:12:29;;;;;;;0.70;0.50;;;15.50;99.90;;;14.15;100.00;99585.56;10348059;28;96571;-85
2023/10/22 11:17:33;;;;;;;0.73;0.47;;;15.40;99.90;;;14.17;100.00;99583.50;10305069;28;97479;-85
2023/10/22 11:22:37;;;;;;;0.52;0.30;;;15.50;99.90;;;14.28;100.00;99594.59;10338299;28;99124;-85
2023/10/22 11:27:40;;;;;;;0.47;0.40;;;15.60;99.90;;;14.40;99.96;99592.97;10331025;28;96672;-87
2023/10/22 11:32:48;;;;;;;0.52;0.32;;;15.70;99.90;;;14.49;97.41;99607.75;10319669;28;98229;-84
2023/10/22 11:37:53;;;;;;;1.10;0.43;;;15.80;99.90;;;14.58;98.06;99600.38;10297765;28;98909;-84
2023/10/22 11:43:14;;;;;;;1.25;0.40;;;15.90;99.90;;;14.72;96.73;99605.47;10334469;28;96641;-85
2023/10/22 11:48:21;;;;;;;2.95;0.40;;;16.00;99.90;;;14.93;96.25;99587.50;10326662;28;98172;-85
2023/10/22 11:53:43;;;;;;;0.52;0.40;;;16.20;99.90;;;15.31;95.52;99594.78;10327609;28;98968;-85
2023/10/22 11:58:55;;;;;;;0.22;0.20;;;16.60;99.90;;;15.69;90.54;99600.97;10325017;28;96527;-84
2023/10/22 12:03:59;;;;;;;0.90;0.40;;;17.00;99.90;;;15.90;87.87;99609.72;10288571;28;97049;-84
2023/10/22 12:09:04;;;;;;;0.70;0.30;;;17.20;99.90;;;15.89;82.27;99616.09;10313347;28;96691;-85
2023/10/22 12:14:09;;;;;;;1.58;0.30;;;17.20;99.90;;;15.74;79.46;99611.88;10327604;28;98514;-86
2023/10/22 12:19:13;;;;;;;0.25;0.13;;;17.10;99.60;;;15.67;82.06;99631.69;10310724;28;96784;-86
2023/10/22 12:24:17;;;;;;;0.40;0.30;;;17.00;99.90;;;15.70;81.13;99616.00;10326962;28;98894;-84
2023/10/22 12:29:40;;;;;;;0.75;0.30;;;17.00;99.90;;;15.75;80.67;99613.50;10353059;28;96664;-86
2023/10/22 12:34:44;;;;;;;0.50;0.30;;;17.10;99.90;;;15.78;81.62;99623.00;10331744;28;97255;-84
2023/10/22 12:39:47;;;;;;;0.55;0.25;;;17.10;99.90;;;15.76;80.38;99631.22;10323499;28;97438;-84
2023/10/22 12:44:51;;;;;;;2.40;0.43;;;17.10;99.80;;;15.79;81.65;99635.34;10334361;28;96478;-83
2023/10/22 12:49:55;;;;;;;0.43;0.30;;;17.10;99.90;;;15.83;81.35;99641.06;10339304;28;96739;-83
2023/10/22 12:55:00;;;;;;;1.02;0.40;;;17.10;99.90;;;15.76;80.66;99649.16;10328780;28;96748;-83
2023/10/22 13:00:12;;;;;;;2.28;0.35;;;17.10;99.90;;;15.68;81.44;99638.69;10330776;28;96641;-83
2023/10/22 13:05:16;;;;;;;0.77;0.40;;;17.00;99.90;;;15.75;81.73;99658.22;10336787;28;96531;-84
2023/10/22 13:10:20;;;;;;;0.73;0.30;;;17.10;99.90;;;15.73;79.75;99671.84;10335695;28;97381;-84
2023/10/22 13:15:25;;;;;;;0.75;0.40;;;17.10;99.90;;;15.70;80.23;99674.94;10356099;28;96561;-83
2023/10/22 13:20:29;;;;;;;0.30;0.20;;;17.10;99.90;;;15.72;80.93;99670.19;10340854;28;96555;-83
2023/10/22 13:25:34;;;;;;;0.50;0.40;;;17.10;99.90;;;15.79;78.88;99668.31;10347632;28;97980;-83
2023/10/22 13:30:40;;;;;;;0.50;0.30;;;17.10;99.20;;;15.85;78.63;99665.81;10339887;28;97688;-83
2023/10/22 13:35:43;;;;;;;2.15;0.32;;;17.10;99.30;;;15.88;77.68;99662.69;10329744;28;97515;-83
2023/10/22 13:40:47;;;;;;;3.70;0.50;;;17.20;98.90;;;15.94;78.03;99668.00;10306276;28;96627;-83
2023/10/22 13:45:51;;;;;;;0.45;0.30;;;17.20;99.10;;;16.01;78.33;99660.75;10339520;28;98141;-83
2023/10/22 13:50:54;;;;;;;1.27;0.20;;;17.30;99.10;;;16.06;75.68;99673.50;10320860;28;96591;-85
2023/10/22 13:55:59;;;;;;;1.05;0.30;;;17.40;97.80;;;16.09;75.95;99667.72;10295073;28;97284;-83
2023/10/22 14:01:02;;;;;;;1.25;0.63;;;17.40;98.50;;;16.14;75.27;99675.94;10338500;28;96615;-82
2023/10/22 14:06:06;;;;;;;0.22;0.17;;;17.50;98.10;;;16.16;73.81;99683.75;10300306;28;96762;-82
2023/10/22 14:11:14;;;;;;;0.57;0.22;;;17.50;97.80;;;16.16;73.51;99694.47;10317816;28;98112;-83
2023/10/22 14:16:20;;;;;;;2.35;0.90;;;17.50;97.10;;;16.15;72.70;99687.47;10345698;28;97527;-83
2023/10/22 14:21:23;;;;;;;1.95;0.40;;;17.50;97.00;;;16.15;73.48;99703.56;10303151;28;98478;-83
2023/10/22 14:26:30;;;;;;;2.75;0.40;;;17.50;97.30;;;16.15;72.89;99704.38;10337983;28;97814;-82
2023/10/22 14:31:33;;;;;;;2.20;1.75;;;17.50;96.90;;;16.16;74.12;99715.91;10343060;28;96646;-83
2023/10/22 14:36:37;;;;;;;0.80;0.55;;;17.50;97.40;;;16.14;74.64;99731.41;10335570;28;97431;-83
2023/10/22 14:41:41;;;;;;;0.57;0.40;;;17.50;97.60;;;16.08;72.51;99725.03;10344548;28;98647;-83
2023/10/22 14:46:44;;;;;;;1.98;0.47;;;17.40;96.90;;;16.02;71.50;99729.41;10347605;28;96640;-83
2023/10/22 14:51:48;;;;;;;6.38;2.72;;;17.40;96.30;;;15.97;72.42;99742.63;10324784;28;97158;-83
2023/10/22 14:56:52;;;;;;;40.47;15.90;;;17.30;96.70;;;15.91;72.64;99740.78;10350710;28;96702;-83
2023/10/22 15:01:55;;;;;;;44.28;15.63;;;17.30;96.90;;;15.86;73.17;99754.00;10316550;28;97989;-83
2023/10/22 15:06:59;;;;;;;48.42;18.55;;;17.20;96.90;;;15.74;73.73;99756.53;10333617;28;96545;-83
2023/10/22 15:12:03;;;;;;;9.43;4.47;;;17.10;97.20;;;15.62;74.35;99762.72;10304167;28;97497;-83
2023/10/22 15:17:06;;;;;;;5.65;2.50;;;17.10;97.40;;;15.47;75.12;99762.97;10329002;28;98583;-83
2023/10/22 15:22:10;;;;;;;3.35;1.25;;;16.90;97.60;;;15.31;75.97;99764.25;10342682;28;96671;-82
2023/10/22 15:27:14;;;;;;;1.40;0.75;;;16.80;97.80;;;15.15;76.99;99778.88;10324183;28;96737;-82
2023/10/22 15:32:18;;;;;;;2.10;0.98;;;16.60;98.00;;;15.00;77.98;99786.31;10308268;28;98388;-83
2023/10/22 15:37:22;;;;;;;1.40;0.68;;;16.50;98.10;;;14.86;78.97;99779.31;10332344;28;96666;-83
2023/10/22 15:42:25;;;;;;;1.23;0.52;;;16.30;98.30;;;14.75;79.45;99803.97;10319991;28;96705;-83
2023/10/22 15:47:29;;;;;;;2.60;0.80;;;16.20;98.60;;;14.59;80.57;99806.03;10308377;28;97445;-83
2023/10/22 15:52:32;;;;;;;2.08;0.82;;;16.00;98.80;;;14.45;81.34;99810.50;10343718;28;97584;-83
2023/10/22 15:57:36;;;;;;;3.35;1.48;;;15.90;99.00;;;14.30;81.99;99817.88;10327366;28;98854;-83
2023/10/22 16:02:40;;;;;;;14.30;9.20;;;15.80;99.20;;;14.18;83.16;99833.66;10295798;28;97258;-83
2023/10/22 16:07:45;;;;;;;6.30;4.20;;;15.60;99.40;;;14.04;84.07;99845.31;10331546;28;96652;-83
2023/10/22 16:12:49;;;;;;;5.00;2.40;;;15.50;99.60;;;13.88;84.67;99851.00;10324481;28;98406;-83
2023/10/22 16:17:56;;;;;;;4.75;3.22;;;15.40;99.80;;;13.69;85.35;99860.53;10311527;28;97216;-83
2023/10/22 16:23:00;;;;;;;5.00;2.60;;;15.10;99.90;;;13.46;86.36;99874.16;10302080;28;97523;-83
2023/10/22 16:28:04;;;;;;;6.72;4.00;;;14.90;99.90;;;13.25;87.26;99876.84;10341012;28;97175;-83
2023/10/22 16:33:14;;;;;;;8.93;6.60;;;14.70;99.90;;;13.00;89.77;99887.06;10329789;28;97826;-83
2023/10/22 16:38:19;;;;;;;5.00;3.30;;;14.40;99.90;;;12.80;91.53;99889.53;10339012;28;97865;-82
2023/10/22 16:43:23;;;;;;;6.93;2.40;;;14.20;99.90;;;12.70;93.26;99895.19;10340915;28;97624;-83
2023/10/22 16:48:30;;;;;;;15.17;6.77;;;14.10;99.90;;;12.63;93.87;99904.94;10334861;28;97425;-83
2023/10/22 16:53:34;;;;;;;3.13;1.83;;;14.00;99.90;;;12.59;94.40;99904.50;10313199;28;96612;-83
2023/10/22 16:58:38;;;;;;;3.20;1.80;;;14.00;99.90;;;12.51;95.22;99901.13;10306454;28;97776;-83
2023/10/22 17:03:42;;;;;;;13.90;7.90;;;13.90;99.90;;;12.41;96.54;99904.06;10357545;28;96711;-83
2023/10/22 17:08:49;;;;;;;5.10;2.40;;;13.80;99.90;;;12.37;97.24;99905.47;10319993;28;98885;-83
2023/10/22 17:13:53;;;;;;;7.20;4.23;;;13.70;99.90;;;12.35;97.83;99918.13;10323713;28;96608;-85
2023/10/22 17:18:57;;;;;;;2.53;1.63;;;13.70;99.90;;;12.39;97.92;99935.41;10352583;28;96659;-83
2023/10/22 17:24:01;;;;;;;2.73;1.20;;;13.80;99.90;;;12.41;97.81;99930.72;10359388;28;97043;-83
2023/10/22 17:29:08;;;;;;;1.50;0.90;;;13.80;99.90;;;12.40;97.30;99937.06;10334722;28;98381;-83
2023/10/22 17:34:14;;;;;;;1.90;0.70;;;13.80;99.90;;;12.39;96.98;99929.25;10337626;28;97981;-85
2023/10/22 17:39:18;;;;;;;1.47;0.80;;;13.80;99.90;;;12.36;97.21;99941.13;10331544;28;98363;-83
2023/10/22 17:44:21;;;;;;;2.10;0.90;;;13.70;99.90;;;12.25;97.60;99934.44;10290048;28;97819;-83
2023/10/22 17:49:25;;;;;;;1.23;0.70;;;13.70;99.90;;;12.18;98.28;99928.19;10312966;28;96636;-83
2023/10/22 17:54:29;;;;;;;2.60;0.77;;;13.60;99.90;;;12.13;98.58;99919.09;10320064;28;98310;-83
2023/10/22 17:59:33;;;;;;;1.77;0.60;;;13.50;99.90;;;12.13;98.54;99929.75;10310421;28;97440;-84
2023/10/22 18:04:44;;;;;;;1.33;0.50;;;13.50;99.90;;;12.11;98.43;99937.09;10314551;28;96602;-83
2023/10/22 18:09:48;;;;;;;1.87;0.70;;;13.50;99.90;;;12.07;98.21;99947.31;10329304;28;97909;-83
2023/10/22 18:14:54;;;;;;;1.33;0.77;;;13.50;99.90;;;11.99;98.59;99950.03;10298198;28;96784;-83
2023/10/22 18:20:00;;;;;;;2.33;0.80;;;13.40;99.90;;;11.92;98.96;99938.47;10329012;28;97801;-83
2023/10/22 18:25:10;;;;;;;1.37;0.50;;;13.30;99.90;;;11.90;99.26;99943.16;10322189;28;97580;-83
2023/10/22 18:30:17;;;;;;;0.57;0.37;;;13.30;99.90;;;11.87;99.79;99938.19;10320495;28;97662;-83
2023/10/22 18:35:20;;;;;;;0.97;0.60;;;13.30;99.90;;;11.89;99.65;99941.50;10289965;28;96528;-84
2023/10/22 18:40:29;;;;;;;1.50;0.80;;;13.30;99.90;;;11.88;99.25;99943.34;10348616;28;96768;-84
2023/10/22 18:45:42;;;;;;;1.57;0.60;;;13.30;99.90;;;11.86;99.13;99937.34;10346272;28;98109;-83
2023/10/22 18:50:59;;;;;;;0.70;0.30;;;13.30;99.90;;;11.85;99.20;99940.22;10336998;28;96648;-83
2023/10/22 18:56:05;;;;;;;1.03;0.50;;;13.30;99.90;;;11.82;99.42;99960.06;10325181;28;97277;-83
2023/10/22 19:01:23;;;;;;;3.23;0.70;;;13.30;99.90;;;11.78;99.27;99954.22;10313976;28;98323;-83
2023/10/22 19:06:29;;;;;;;2.33;0.90;;;13.20;99.90;;;11.70;99.02;99956.16;10317682;28;97461;-83
2023/10/22 19:11:33;;;;;;;3.40;1.20;;;13.20;99.90;;;11.54;99.58;99967.75;10319597;28;97845;-84
2023/10/22 19:16:39;;;;;;;2.47;1.10;;;13.00;99.90;;;11.40;100.00;99972.03;10330923;28;96520;-83
2023/10/22 19:21:44;;;;;;;1.87;0.97;;;12.80;99.90;;;11.33;100.00;99986.19;10330806;28;96612;-83
2023/10/22 19:26:49;;;;;;;4.13;1.10;;;12.70;99.90;;;11.29;100.00;100000.88;10336947;28;98836;-83
2023/10/22 19:31:53;;;;;;;2.77;1.30;;;12.70;99.90;;;11.28;100.00;100007.22;10296529;28;96752;-83
2023/10/22 19:36:57;;;;;;;16.50;5.00;;;12.70;99.90;;;11.20;100.00;100024.03;10329957;28;96710;-83
2023/10/22 19:42:01;;;;;;;13.63;3.43;;;12.70;99.90;;;11.07;100.00;100039.75;10340505;28;98849;-83
2023/10/22 19:47:04;;;;;;;15.47;3.60;;;12.60;99.90;;;10.91;100.00;100036.16;10328480;28;96844;-83
2023/10/22 19:52:08;;;;;;;14.67;4.10;;;12.50;99.90;;;10.86;100.00;100038.53;10345609;28;98245;-83
2023/10/22 19:57:12;;;;;;;8.80;2.73;;;12.40;99.90;;;10.77;100.00;100036.91;10343315;28;96654;-83
2023/10/22 20:02:16;;;;;;;8.83;3.20;;;12.30;99.90;;;10.63;100.00;100037.63;10318401;28;97660;-83
2023/10/22 20:07:21;;;;;;;8.93;3.17;;;12.20;99.90;;;10.57;100.00;100051.59;10325418;28;96642;-83
2023/10/22 20:12:24;;;;;;;7.37;3.03;;;12.10;99.90;;;10.55;100.00;100054.41;10331402;28;97512;-83
2023/10/22 20:17:28;;;;;;;7.30;2.93;;;12.10;99.90;;;10.51;100.00;100061.09;10310458;28;98613;-83
2023/10/22 20:22:32;;;;;;;9.43;2.83;;;12.00;99.90;;;10.45;100.00;100057.28;10350354;28;96685;-83
2023/10/22 20:27:36;;;;;;;4.03;2.40;;;12.00;99.90;;;10.49;100.00;100063.06;10305669;28;97838;-83
2023/10/22 20:32:41;;;;;;;6.60;3.40;;;12.00;99.90;;;10.47;100.00;100069.56;10303981;28;96635;-83
2023/10/22 20:37:47;;;;;;;7.77;3.20;;;12.00;99.90;;;10.42;100.00;100068.22;10334228;28;96772;-83
2023/10/22 20:42:51;;;;;;;5.77;3.20;;;12.00;99.90;;;10.38;100.00;100063.44;10321660;28;98955;-83
2023/10/22 20:47:55;;;;;;;6.83;2.60;;;11.90;99.90;;;10.32;100.00;100064.13;10369455;28;98076;-83
2023/10/22 20:52:58;;;;;;;4.00;2.30;;;11.80;99.90;;;10.30;100.00;100063.44;10350359;28;99258;-83
2023/10/22 20:58:02;;;;;;;3.40;1.93;;;11.80;99.90;;;10.34;100.00;100065.59;10340998;28;96584;-83
2023/10/22 21:03:06;;;;;;;3.77;1.97;;;11.80;99.90;;;10.34;100.00;100060.28;10365865;28;96909;-83